Time;durP1;ratioP1;P1;durP2;ratioP2;P2;SDS_P1;SDS_P2;PMS_P1;PMS_P2;Temp;Humidity;BMP_temperature;BMP_pressure;BME280_temperature;BME280_humidity;BME280_pressure;Samples;Min_cycle;Max_cycle;Signal;HPM_P1;HPM_P2
2022/12/11 00:00:48;;;;;;;104.27;34.63;;;;;;;-0.45;100.00;101064.13;5016103;28;20492;-60
2022/12/11 00:03:15;;;;;;;113.17;36.00;;;;;;;-0.47;100.00;101060.75;5013331;28;20034;-59
2022/12/11 00:05:40;;;;;;;111.93;34.83;;;;;;;-0.44;100.00;101065.81;5012690;28;20048;-61
2022/12/11 00:08:06;;;;;;;104.83;33.77;;;;;;;-0.43;100.00;101062.28;5018114;28;20485;-58
2022/12/11 00:10:31;;;;;;;107.27;34.23;;;;;;;-0.43;100.00;101063.09;5011018;28;20072;-59
2022/12/11 00:12:56;;;;;;;104.77;34.67;;;;;;;-0.41;100.00;101061.25;5005404;28;20087;-59
2022/12/11 00:15:22;;;;;;;108.03;35.47;;;;;;;-0.41;100.00;101050.84;5020715;28;20084;-58
2022/12/11 00:17:47;;;;;;;100.87;34.20;;;;;;;-0.39;100.00;101062.94;5007673;28;20037;-59
2022/12/11 00:20:12;;;;;;;106.30;34.03;;;;;;;-0.39;100.00;101053.38;5016134;28;20033;-61
2022/12/11 00:22:38;;;;;;;95.90;34.07;;;;;;;-0.41;100.00;101056.03;5011101;28;20026;-58
2022/12/11 00:25:03;;;;;;;100.53;33.57;;;;;;;-0.38;100.00;101054.19;5010171;28;20037;-59
2022/12/11 00:27:29;;;;;;;100.37;35.23;;;;;;;-0.38;100.00;101054.19;5020208;28;20048;-58
2022/12/11 00:29:54;;;;;;;102.10;34.37;;;;;;;-0.37;100.00;101046.28;5017055;28;20037;-60
2022/12/11 00:32:19;;;;;;;95.77;34.23;;;;;;;-0.38;100.00;101059.41;5009518;28;20057;-59
2022/12/11 00:34:45;;;;;;;97.90;34.20;;;;;;;-0.37;100.00;101061.06;5007591;28;20029;-58
2022/12/11 00:37:10;;;;;;;96.80;33.40;;;;;;;-0.37;100.00;101055.88;5007166;28;20048;-59
2022/12/11 00:39:36;;;;;;;98.33;34.33;;;;;;;-0.35;100.00;101059.25;5012859;28;20030;-59
2022/12/11 00:42:02;;;;;;;100.37;33.40;;;;;;;-0.34;100.00;101058.31;5009545;28;20073;-61
2022/12/11 00:44:27;;;;;;;97.10;33.33;;;;;;;-0.33;100.00;101054.78;5014866;28;20129;-58
2022/12/11 00:46:52;;;;;;;98.03;33.43;;;;;;;-0.32;100.00;101053.84;5020141;28;20366;-59
2022/12/11 00:49:17;;;;;;;97.70;34.07;;;;;;;-0.32;100.00;101048.63;5019984;28;20803;-61
2022/12/11 00:51:43;;;;;;;94.87;33.60;;;;;;;-0.30;100.00;101049.41;5017143;28;20037;-61
2022/12/11 00:54:08;;;;;;;98.63;32.73;;;;;;;-0.30;100.00;101052.84;5019194;28;20080;-59
2022/12/11 00:56:33;;;;;;;96.17;33.87;;;;;;;-0.30;100.00;101044.19;5020186;28;20128;-58
2022/12/11 00:58:59;;;;;;;89.93;33.93;;;;;;;-0.27;100.00;101046.63;5016019;28;20040;-59
2022/12/11 01:01:24;;;;;;;98.13;32.97;;;;;;;-0.25;100.00;101049.97;5017605;28;20037;-58
2022/12/11 01:03:50;;;;;;;95.20;32.70;;;;;;;-0.26;100.00;101050.91;5018862;28;20036;-58
2022/12/11 01:06:18;;;;;;;85.60;31.70;;;;;;;-0.24;100.00;101046.47;5019847;28;20076;-59
2022/12/11 01:08:45;;;;;;;87.20;32.33;;;;;;;-0.25;100.00;101044.75;5016054;28;20029;-59
2022/12/11 01:11:13;;;;;;;82.13;32.40;;;;;;;-0.23;100.00;101042.91;5019711;28;20037;-60
2022/12/11 01:13:40;;;;;;;81.53;31.80;;;;;;;-0.27;100.00;101041.41;5020924;28;20038;-61
2022/12/11 01:16:12;;;;;;;80.13;31.47;;;;;;;-0.24;100.00;101051.69;5011597;28;20135;-61
2022/12/11 01:18:38;;;;;;;78.33;31.63;;;;;;;-0.22;100.00;101044.59;5023442;28;20052;-58
2022/12/11 01:21:12;;;;;;;81.70;32.73;;;;;;;-0.23;100.00;101047.28;5014341;28;20548;-60
2022/12/11 01:23:38;;;;;;;80.27;31.50;;;;;;;-0.21;100.00;101054.09;5016718;28;20141;-58
2022/12/11 01:26:12;;;;;;;80.90;31.53;;;;;;;-0.21;100.00;101056.69;5016549;28;20463;-58
2022/12/11 01:28:39;;;;;;;70.90;29.87;;;;;;;-0.20;100.00;101053.16;5017196;28;20460;-61
2022/12/11 01:31:13;;;;;;;79.77;30.90;;;;;;;-0.20;100.00;101050.56;5017903;28;20033;-58
2022/12/11 01:33:39;;;;;;;70.07;29.70;;;;;;;-0.20;100.00;101058.38;5021238;28;20859;-58
2022/12/11 01:36:17;;;;;;;78.07;30.93;;;;;;;-0.20;100.00;101047.94;5009160;28;20040;-59
2022/12/11 01:38:43;;;;;;;76.77;31.37;;;;;;;-0.19;100.00;101051.41;5011872;28;20400;-58
2022/12/11 01:41:09;;;;;;;75.43;30.87;;;;;;;-0.18;100.00;101048.72;5017907;28;20029;-59
2022/12/11 01:43:35;;;;;;;72.30;30.70;;;;;;;-0.18;100.00;101056.53;5013769;28;20049;-60
2022/12/11 01:46:00;;;;;;;72.90;30.33;;;;;;;-0.19;100.00;101049.63;5018973;28;20147;-60
2022/12/11 01:48:31;;;;;;;77.53;30.83;;;;;;;-0.18;100.00;101046.13;5017573;28;20029;-59
2022/12/11 01:51:03;;;;;;;68.37;29.27;;;;;;;-0.20;100.00;101037.53;5015718;28;20384;-58
2022/12/11 01:53:39;;;;;;;72.28;30.05;;;;;;;-0.16;100.00;101044.25;5019403;28;20707;-60
2022/12/11 01:56:06;;;;;;;68.67;29.40;;;;;;;-0.17;100.00;101037.38;5013317;28;20033;-59
2022/12/11 01:58:37;;;;;;;68.87;28.80;;;;;;;-0.16;100.00;101033.81;5014702;28;20037;-59
2022/12/11 02:01:02;;;;;;;64.87;28.70;;;;;;;-0.15;100.00;101040.72;5016322;28;20067;-59
2022/12/11 02:03:27;;;;;;;69.97;29.37;;;;;;;-0.15;100.00;101038.09;5017913;28;20065;-61
2022/12/11 02:05:53;;;;;;;64.63;28.77;;;;;;;-0.11;100.00;101035.34;5018067;28;20037;-60
2022/12/11 02:08:19;;;;;;;64.13;29.83;;;;;;;-0.15;100.00;101035.50;5014791;28;20638;-60
2022/12/11 02:11:00;;;;;;;71.07;28.97;;;;;;;-0.09;100.00;101038.69;5015275;28;20037;-59
2022/12/11 02:13:42;;;;;;;65.53;28.87;;;;;;;-0.10;100.00;101042.22;5017278;28;20038;-59
2022/12/11 02:16:18;;;;;;;65.78;28.58;;;;;;;-0.16;100.00;101028.59;5017466;28;20179;-60
2022/12/11 02:18:58;;;;;;;60.87;28.33;;;;;;;-0.10;100.00;101037.00;5021444;28;20083;-59
2022/12/11 02:21:30;;;;;;;62.17;28.10;;;;;;;-0.15;100.00;101032.88;5011725;28;20052;-60
2022/12/11 02:24:14;;;;;;;66.93;28.20;;;;;;;-0.11;100.00;101038.78;5008830;28;20033;-59
2022/12/11 02:27:15;;;;;;;71.13;28.17;;;;;;;-0.06;100.00;101030.69;5016184;28;20042;-58
2022/12/11 02:29:49;;;;;;;58.97;27.63;;;;;;;-0.12;100.00;101033.63;5011817;28;20034;-60
2022/12/11 02:32:44;;;;;;;58.53;27.70;;;;;;;-0.07;100.00;101031.59;5019135;28;20037;-61
2022/12/11 02:35:17;;;;;;;62.83;28.47;;;;;;;-0.11;100.00;101027.53;5013146;28;20037;-57
2022/12/11 02:37:45;;;;;;;62.23;27.00;;;;;;;-0.13;100.00;101017.16;5014122;28;20068;-59
2022/12/11 02:40:14;;;;;;;57.77;27.30;;;;;;;-0.09;100.00;101033.47;5014690;28;20026;-60
2022/12/11 02:42:42;;;;;;;58.50;26.43;;;;;;;-0.09;100.00;101028.25;5016466;28;20045;-59
2022/12/11 02:45:08;;;;;;;55.77;25.93;;;;;;;-0.10;100.00;101031.81;5019341;28;20029;-61
2022/12/11 02:47:36;;;;;;;60.83;27.57;;;;;;;-0.07;100.00;101029.00;5013584;28;20074;-58
2022/12/11 02:50:06;;;;;;;55.30;27.00;;;;;;;-0.10;100.00;101026.59;5017215;28;20133;-61
2022/12/11 02:52:33;;;;;;;53.33;26.00;;;;;;;-0.07;100.00;101026.41;5015349;28;20091;-59
2022/12/11 02:55:01;;;;;;;54.60;25.57;;;;;;;-0.07;100.00;101032.47;5015747;28;20048;-58
2022/12/11 02:57:32;;;;;;;53.97;25.87;;;;;;;-0.06;100.00;101038.50;5016493;28;20117;-60
2022/12/11 02:59:57;;;;;;;47.97;24.50;;;;;;;-0.06;100.00;101026.31;5017088;28;20037;-58
2022/12/11 03:02:23;;;;;;;53.00;25.23;;;;;;;-0.06;100.00;101026.31;5016386;28;20056;-59
2022/12/11 03:04:48;;;;;;;49.57;24.37;;;;;;;-0.05;100.00;101032.38;5015058;28;20034;-59
2022/12/11 03:07:22;;;;;;;46.27;24.03;;;;;;;-0.06;100.00;101017.66;5010305;28;20033;-60
2022/12/11 03:09:49;;;;;;;48.77;23.53;;;;;;;-0.04;100.00;101018.41;5011726;28;20026;-59
2022/12/11 03:12:19;;;;;;;47.10;22.60;;;;;;;-0.04;100.00;101015.81;5020133;28;20477;-59
2022/12/11 03:14:46;;;;;;;43.37;22.27;;;;;;;-0.08;100.00;101009.09;5017294;28;20657;-57
2022/12/11 03:17:22;;;;;;;40.93;21.47;;;;;;;-0.04;100.00;101015.81;5015771;28;20055;-60
2022/12/11 03:20:09;;;;;;;40.40;20.27;;;;;;;-0.04;100.00;101010.59;5013650;28;20436;-61
2022/12/11 03:22:59;;;;;;;36.97;19.87;;;;;;;-0.03;100.00;101007.91;5014434;28;20045;-60
2022/12/11 03:25:45;;;;;;;35.97;19.70;;;;;;;-0.10;100.00;101003.13;5020109;28;20037;-58
2022/12/11 03:28:18;;;;;;;35.10;18.90;;;;;;;-0.13;100.00;100998.94;5011519;28;20044;-58
2022/12/11 03:30:47;;;;;;;35.57;20.00;;;;;;;-0.11;100.00;101006.66;5003711;28;20045;-61
2022/12/11 03:33:16;;;;;;;37.33;19.43;;;;;;;-0.08;100.00;101009.09;5016146;28;20071;-59
2022/12/11 03:35:55;;;;;;;34.77;18.70;;;;;;;-0.09;100.00;100997.81;5010898;28;20477;-60
2022/12/11 03:38:27;;;;;;;34.90;18.60;;;;;;;-0.12;100.00;100994.53;5009426;28;20034;-61
2022/12/11 03:40:57;;;;;;;35.90;18.83;;;;;;;-0.16;100.00;101002.53;5011620;28;20057;-58
2022/12/11 03:43:24;;;;;;;34.83;19.20;;;;;;;-0.11;100.00;101004.06;5019490;28;20046;-61
2022/12/11 03:45:52;;;;;;;34.30;19.53;;;;;;;-0.16;100.00;101002.53;5009791;28;20041;-60
2022/12/11 03:48:18;;;;;;;35.03;18.83;;;;;;;-0.15;100.00;100998.19;5014934;28;20030;-58
2022/12/11 03:50:47;;;;;;;32.97;18.30;;;;;;;-0.15;100.00;100999.00;5003024;28;20144;-61
2022/12/11 03:53:13;;;;;;;33.10;18.60;;;;;;;-0.14;100.00;100995.47;5012151;28;20485;-59
2022/12/11 03:55:38;;;;;;;33.00;18.67;;;;;;;-0.12;100.00;100992.78;5018745;28;20043;-59
2022/12/11 03:58:04;;;;;;;36.30;19.10;;;;;;;-0.12;100.00;100987.56;5006921;28;20033;-58
2022/12/11 04:00:30;;;;;;;34.50;19.43;;;;;;;-0.09;100.00;100983.94;5016704;28;20037;-59
2022/12/11 04:03:14;;;;;;;33.93;18.70;;;;;;;-0.07;100.00;100984.69;5012541;28;20080;-60
2022/12/11 04:05:46;;;;;;;35.10;18.77;;;;;;;-0.10;100.00;100979.66;5014136;28;20057;-60
2022/12/11 04:08:12;;;;;;;32.83;18.73;;;;;;;-0.12;100.00;100977.13;5009701;28;20048;-60
2022/12/11 04:10:39;;;;;;;32.77;18.37;;;;;;;-0.11;100.00;100985.81;5012076;28;20046;-60
2022/12/11 04:13:04;;;;;;;33.07;18.70;;;;;;;-0.11;100.00;100988.41;5009548;28;20095;-59
2022/12/11 04:15:29;;;;;;;31.90;17.77;;;;;;;-0.09;100.00;100991.75;5017762;28;20045;-59
2022/12/11 04:26:11;;;;;;;34.63;18.83;;;;;;;-0.08;100.00;100986.47;5008419;28;20561;-58
2022/12/11 04:28:38;;;;;;;33.80;18.87;;;;;;;-0.14;100.00;100977.22;5021202;28;20033;-60
2022/12/11 04:31:04;;;;;;;31.40;17.97;;;;;;;-0.06;100.00;100982.00;5015293;28;20044;-58
2022/12/11 04:33:30;;;;;;;30.90;18.30;;;;;;;-0.04;100.00;100981.91;5015039;28;20499;-58
2022/12/11 04:35:59;;;;;;;33.10;19.00;;;;;;;-0.03;100.00;100981.84;5019348;28;20041;-60
2022/12/11 04:38:25;;;;;;;30.63;17.40;;;;;;;-0.04;100.00;100981.91;5018465;28;20037;-59
2022/12/11 04:41:17;;;;;;;33.07;17.90;;;;;;;-0.01;100.00;100979.97;5011689;28;20048;-59
2022/12/11 04:43:45;;;;;;;35.33;18.60;;;;;;;-0.09;100.00;100974.38;5014213;28;20476;-59
2022/12/11 04:46:20;;;;;;;32.37;17.77;;;;;;;-0.09;100.00;100976.13;5010571;28;20650;-59
2022/12/11 04:48:47;;;;;;;32.13;18.27;;;;;;;-0.07;100.00;100975.09;5017169;28;20540;-60
2022/12/11 04:51:13;;;;;;;34.47;18.53;;;;;;;-0.08;100.00;100972.56;5006989;28;20087;-61
2022/12/11 04:53:38;;;;;;;34.30;18.63;;;;;;;-0.05;100.00;100977.63;5012051;28;20075;-59
2022/12/11 04:56:06;;;;;;;31.70;18.63;;;;;;;-0.08;100.00;100977.78;5015291;28;20128;-59
2022/12/11 04:58:32;;;;;;;32.73;18.47;;;;;;;-0.07;100.00;100974.25;5014207;28;20691;-58
2022/12/11 05:00:57;;;;;;;35.40;18.80;;;;;;;-0.07;100.00;100969.03;5015538;28;20033;-59
2022/12/11 05:03:22;;;;;;;32.60;18.00;;;;;;;-0.07;100.00;100963.81;5013892;28;20108;-58
2022/12/11 05:05:50;;;;;;;32.10;18.73;;;;;;;-0.09;100.00;100965.69;5014378;28;20041;-61
2022/12/11 05:08:19;;;;;;;34.13;19.23;;;;;;;-0.10;100.00;100958.81;5014077;28;20061;-58
2022/12/11 05:11:01;;;;;;;32.77;18.43;;;;;;;-0.14;100.00;100964.19;5013379;28;20038;-61
2022/12/11 05:13:28;;;;;;;29.50;16.57;;;;;;;-0.05;100.00;100967.22;5013002;28;20099;-58
2022/12/11 05:15:53;;;;;;;31.77;16.93;;;;;;;-0.08;100.00;100962.16;5015319;28;20033;-61
2022/12/11 05:18:19;;;;;;;30.93;16.43;;;;;;;-0.08;100.00;100968.22;5017121;28;20488;-61
2022/12/11 05:20:54;;;;;;;31.30;17.40;;;;;;;-0.11;100.00;100951.91;5013224;28;20037;-59
2022/12/11 05:23:19;;;;;;;32.43;17.47;;;;;;;-0.07;100.00;100963.81;5011389;28;20032;-61
2022/12/11 05:25:58;;;;;;;32.20;18.27;;;;;;;-0.07;100.00;100961.22;5007386;28;20029;-58
2022/12/11 05:28:25;;;;;;;35.23;19.17;;;;;;;-0.08;100.00;100957.78;5007748;28;20539;-59
2022/12/11 05:31:01;;;;;;;32.53;18.37;;;;;;;-0.06;100.00;100957.69;5020290;28;20045;-60
2022/12/11 05:33:27;;;;;;;32.97;18.33;;;;;;;-0.05;100.00;100952.38;5019951;28;20475;-59
2022/12/11 05:35:52;;;;;;;31.53;17.83;;;;;;;-0.06;100.00;100955.94;5010899;28;20038;-61
2022/12/11 05:38:18;;;;;;;30.80;17.33;;;;;;;-0.05;100.00;100954.16;5015442;28;20048;-60
2022/12/11 05:40:43;;;;;;;32.73;17.07;;;;;;;-0.05;100.00;100955.00;5014593;28;20038;-59
2022/12/11 05:43:09;;;;;;;29.30;17.03;;;;;;;-0.05;100.00;100962.00;5018720;28;20452;-59
2022/12/11 05:45:34;;;;;;;31.17;18.00;;;;;;;-0.02;100.00;100964.41;5020145;28;20037;-59
2022/12/11 05:48:00;;;;;;;31.77;17.23;;;;;;;0.00;100.00;100959.97;5011815;28;20536;-59
2022/12/11 05:50:25;;;;;;;30.10;17.17;;;;;;;-0.01;100.00;100963.47;5017651;28;20071;-58
2022/12/11 05:52:50;;;;;;;31.10;17.53;;;;;;;-0.02;100.00;100956.59;5019803;28;20061;-59
2022/12/11 05:55:16;;;;;;;31.13;17.20;;;;;;;-0.01;100.00;100963.47;5022667;28;20504;-59
2022/12/11 05:57:41;;;;;;;31.60;16.67;;;;;;;0.00;100.00;100959.97;5005292;28;20100;-58
2022/12/11 06:00:08;;;;;;;30.13;16.73;;;;;;;0.00;100.00;100967.78;5014023;28;20121;-58
2022/12/11 06:02:35;;;;;;;30.77;16.93;;;;;;;0.01;100.00;100966.84;5015893;28;20034;-60
2022/12/11 06:05:01;;;;;;;28.57;16.93;;;;;;;0.02;100.00;100973.72;5019848;28;20052;-59
2022/12/11 06:07:26;;;;;;;31.53;17.13;;;;;;;0.00;100.00;100970.38;5012294;28;20591;-57
2022/12/11 06:09:51;;;;;;;31.50;17.40;;;;;;;0.00;100.00;100965.16;5016112;28;20033;-59
2022/12/11 06:12:17;;;;;;;29.90;16.97;;;;;;;0.00;100.00;100965.16;5009982;28;20033;-59
2022/12/11 06:14:42;;;;;;;30.40;17.30;;;;;;;0.02;100.00;100967.66;5017220;28;20108;-58
2022/12/11 06:17:08;;;;;;;34.03;17.43;;;;;;;0.05;100.00;100970.94;5017466;28;20033;-59
2022/12/11 06:19:33;;;;;;;30.60;16.93;;;;;;;0.06;100.00;100969.19;5018723;28;20171;-60
2022/12/11 06:21:58;;;;;;;32.67;17.90;;;;;;;0.05;100.00;100962.28;5018651;28;20064;-60
2022/12/11 06:24:24;;;;;;;32.00;17.67;;;;;;;0.04;100.00;100960.63;5015633;28;20044;-58
2022/12/11 06:26:49;;;;;;;29.23;17.17;;;;;;;0.07;100.00;100961.28;5008311;28;20033;-59
2022/12/11 06:29:15;;;;;;;34.07;17.80;;;;;;;0.06;100.00;100959.59;5006635;28;20029;-60
2022/12/11 06:31:40;;;;;;;28.87;16.90;;;;;;;0.09;100.00;100959.41;5012289;28;20139;-58
2022/12/11 06:34:05;;;;;;;31.93;17.40;;;;;;;0.09;100.00;100959.41;5009661;28;20038;-61
2022/12/11 06:36:31;;;;;;;31.73;16.80;;;;;;;0.10;100.00;100955.84;5011997;28;20030;-61
2022/12/11 06:38:56;;;;;;;29.23;16.80;;;;;;;0.10;100.00;100955.84;5019154;28;20048;-58
2022/12/11 06:41:21;;;;;;;28.53;16.47;;;;;;;0.11;100.00;100960.13;5016288;28;20033;-58
2022/12/11 06:43:46;;;;;;;30.37;16.77;;;;;;;0.10;100.00;100960.25;5018590;28;20053;-58
2022/12/11 06:46:15;;;;;;;29.10;16.90;;;;;;;0.12;100.00;100958.38;5008351;28;20033;-60
2022/12/11 06:48:41;;;;;;;30.87;17.63;;;;;;;0.13;100.00;100955.69;5013790;28;20378;-57
2022/12/11 06:51:09;;;;;;;30.47;17.50;;;;;;;0.14;100.00;100953.91;5015391;28;20041;-59
2022/12/11 06:53:34;;;;;;;30.23;17.57;;;;;;;0.15;100.00;100952.16;5014255;28;20041;-60
2022/12/11 06:56:12;;;;;;;28.70;16.77;;;;;;;0.16;100.00;100951.22;5008109;28;20535;-60
2022/12/11 06:58:38;;;;;;;32.50;17.50;;;;;;;0.16;100.00;100946.84;5013866;28;20043;-61
2022/12/11 07:01:13;;;;;;;31.50;17.67;;;;;;;0.16;100.00;100948.59;5016066;28;20610;-60
2022/12/11 07:03:38;;;;;;;29.33;16.87;;;;;;;0.15;100.00;100952.16;5016321;28;20082;-61
2022/12/11 07:06:04;;;;;;;34.33;17.87;;;;;;;0.15;100.00;100958.19;5012501;28;20041;-61
2022/12/11 07:08:30;;;;;;;30.00;17.47;;;;;;;0.15;100.00;100958.19;5017266;28;20148;-61
2022/12/11 07:11:08;;;;;;;28.77;16.57;;;;;;;0.16;100.00;100964.25;5014898;28;20029;-61
2022/12/11 07:13:34;;;;;;;31.47;16.90;;;;;;;0.15;100.00;100962.59;5014960;28;20078;-61
2022/12/11 07:16:00;;;;;;;30.90;17.20;;;;;;;0.13;100.00;100960.91;5010638;28;20049;-61
2022/12/11 07:18:27;;;;;;;29.63;17.20;;;;;;;0.12;100.00;100964.44;5015084;28;20026;-59
2022/12/11 07:20:52;;;;;;;31.67;18.10;;;;;;;0.11;100.00;100973.19;5013863;28;20037;-59
2022/12/11 07:23:17;;;;;;;31.63;18.00;;;;;;;0.14;100.00;100972.16;5009360;28;20037;-58
2022/12/11 07:25:43;;;;;;;31.93;17.20;;;;;;;0.15;100.00;100973.00;5014432;28;20058;-59
2022/12/11 07:28:08;;;;;;;31.70;18.10;;;;;;;0.13;100.00;100976.56;5019428;28;20025;-58
2022/12/11 07:30:33;;;;;;;30.70;17.70;;;;;;;0.14;100.00;100977.38;5018156;28;20140;-59
2022/12/11 07:32:59;;;;;;;31.47;17.20;;;;;;;0.14;100.00;100972.16;5019318;28;20957;-60
2022/12/11 07:35:24;;;;;;;30.03;17.67;;;;;;;0.14;100.00;100982.59;5013059;28;20439;-59
2022/12/11 07:37:50;;;;;;;29.53;17.20;;;;;;;0.13;100.00;100979.16;5018253;28;20029;-58
2022/12/11 07:40:15;;;;;;;31.57;17.73;;;;;;;0.12;100.00;100974.88;5012797;28;20061;-58
2022/12/11 07:42:41;;;;;;;33.63;18.10;;;;;;;0.12;100.00;100979.25;5014703;28;20096;-60
2022/12/11 07:45:06;;;;;;;31.30;17.13;;;;;;;0.11;100.00;100978.41;5015235;28;20527;-59
2022/12/11 07:47:32;;;;;;;31.90;17.57;;;;;;;0.09;100.00;100969.84;5013088;28;20040;-60
2022/12/11 07:49:57;;;;;;;31.20;18.13;;;;;;;0.06;100.00;100970.03;5011267;28;20036;-58
2022/12/11 07:52:23;;;;;;;33.33;17.90;;;;;;;0.06;100.00;100977.84;5009669;28;20167;-58
2022/12/11 07:54:48;;;;;;;31.97;18.13;;;;;;;0.05;100.00;100970.94;5012712;28;20112;-59
2022/12/11 07:57:13;;;;;;;35.00;18.53;;;;;;;0.05;100.00;100976.16;5009980;28;20473;-60
2022/12/11 07:59:39;;;;;;;35.13;18.27;;;;;;;0.05;100.00;100978.75;5011396;28;20041;-59
2022/12/11 08:02:04;;;;;;;34.73;18.77;;;;;;;0.05;100.00;100978.75;5012128;28;20128;-60
2022/12/11 08:04:29;;;;;;;35.80;19.80;;;;;;;0.06;100.00;100971.78;5015769;28;20064;-60
2022/12/11 08:06:56;;;;;;;33.23;18.77;;;;;;;0.06;100.00;100979.59;5014588;28;20037;-57
2022/12/11 08:09:21;;;;;;;36.50;19.37;;;;;;;0.05;100.00;100975.31;5014791;28;20390;-58
2022/12/11 08:11:50;;;;;;;36.47;19.60;;;;;;;0.06;100.00;100979.59;5015359;28;20044;-59
2022/12/11 08:14:16;;;;;;;35.63;19.03;;;;;;;0.02;100.00;100978.94;5011470;28;20054;-61
2022/12/11 08:16:42;;;;;;;37.37;20.00;;;;;;;0.02;100.00;100984.16;5011900;28;20037;-58
2022/12/11 08:19:10;;;;;;;36.87;19.60;;;;;;;0.04;100.00;100982.28;5013744;28;20045;-59
2022/12/11 08:21:35;;;;;;;33.90;18.53;;;;;;;0.04;100.00;100981.47;5013371;28;20045;-60
2022/12/11 08:24:00;;;;;;;36.17;20.03;;;;;;;0.05;100.00;100973.53;5015953;28;20037;-58
2022/12/11 08:26:28;;;;;;;37.73;19.93;;;;;;;0.01;100.00;100966.84;5013161;28;20021;-61
2022/12/11 08:28:54;;;;;;;34.13;19.13;;;;;;;0.04;100.00;100977.09;5015950;28;20044;-59
2022/12/11 08:31:20;;;;;;;36.13;19.93;;;;;;;0.04;100.00;100981.47;5009390;28;20053;-58
2022/12/11 08:33:47;;;;;;;38.93;19.47;;;;;;;0.04;100.00;100984.91;5016830;28;20029;-57
2022/12/11 08:36:15;;;;;;;38.57;19.90;;;;;;;-0.01;100.00;100976.50;5012270;28;20076;-58
2022/12/11 08:38:41;;;;;;;40.73;20.20;;;;;;;0.05;100.00;100978.75;5014714;28;20072;-58
2022/12/11 08:41:08;;;;;;;41.40;19.90;;;;;;;0.07;100.00;100982.13;5007693;28;20053;-59
2022/12/11 08:43:33;;;;;;;39.53;20.67;;;;;;;0.06;100.00;100980.47;5011907;28;20045;-58
2022/12/11 08:45:59;;;;;;;37.07;20.17;;;;;;;0.05;100.00;100978.75;5012489;28;20033;-59
2022/12/11 08:48:24;;;;;;;37.70;19.83;;;;;;;0.04;100.00;100977.09;5012166;28;20037;-58
2022/12/11 08:50:50;;;;;;;36.67;20.13;;;;;;;0.04;100.00;100971.88;5014133;28;20056;-58
2022/12/11 08:53:15;;;;;;;36.50;19.20;;;;;;;0.06;100.00;100975.25;5011394;28;20054;-58
2022/12/11 08:55:41;;;;;;;37.73;20.17;;;;;;;0.04;100.00;100964.03;5017243;28;20409;-60
2022/12/11 08:58:06;;;;;;;37.07;19.73;;;;;;;0.06;100.00;100969.19;5016651;28;20397;-60
2022/12/11 09:00:31;;;;;;;37.83;20.30;;;;;;;0.04;100.00;100961.44;5010619;28;20119;-59
2022/12/11 09:02:57;;;;;;;37.67;20.33;;;;;;;0.06;100.00;100975.25;5011748;28;20104;-58
2022/12/11 09:05:22;;;;;;;37.07;19.53;;;;;;;0.07;100.00;100965.63;5016538;28;20030;-59
2022/12/11 09:07:47;;;;;;;36.00;19.73;;;;;;;0.09;100.00;100974.19;5014735;28;20130;-59
2022/12/11 09:10:13;;;;;;;34.17;19.03;;;;;;;0.04;100.00;100966.66;5014792;28;20029;-60
2022/12/11 09:12:38;;;;;;;37.87;19.10;;;;;;;0.06;100.00;100970.03;5020764;28;20124;-58
2022/12/11 09:15:04;;;;;;;35.90;19.50;;;;;;;0.05;100.00;100965.72;5017856;28;20032;-61
2022/12/11 09:17:29;;;;;;;35.27;19.63;;;;;;;0.04;100.00;100971.03;5013747;28;20175;-61
2022/12/11 09:19:55;;;;;;;36.27;19.83;;;;;;;0.04;100.00;100971.03;5017013;28;20600;-59
2022/12/11 09:22:20;;;;;;;35.87;19.00;;;;;;;0.05;100.00;100967.50;5017938;28;20037;-61
2022/12/11 09:24:45;;;;;;;34.30;19.73;;;;;;;0.06;100.00;100962.22;5015885;28;20045;-61
2022/12/11 09:27:11;;;;;;;36.80;19.87;;;;;;;0.09;100.00;100963.75;5014606;28;20933;-60
2022/12/11 09:29:37;;;;;;;38.73;20.50;;;;;;;0.10;100.00;100970.69;5014231;28;20034;-58
2022/12/11 09:32:02;;;;;;;46.67;25.13;;;;;;;0.10;100.00;100975.91;5012176;28;20038;-59
2022/12/11 09:34:28;;;;;;;43.37;23.37;;;;;;;0.09;100.00;100964.63;5009789;28;20116;-60
2022/12/11 09:36:53;;;;;;;38.07;20.60;;;;;;;0.11;100.00;100962.75;5014167;28;20038;-61
2022/12/11 09:39:18;;;;;;;38.83;21.07;;;;;;;0.12;100.00;100964.44;5013201;28;20034;-58
2022/12/11 09:41:51;;;;;;;37.40;20.70;;;;;;;0.15;100.00;100957.38;5011832;28;20095;-58
2022/12/11 09:44:31;;;;;;;39.38;21.58;;;;;;;0.16;100.00;100959.03;5011527;28;20048;-60
2022/12/11 09:46:59;;;;;;;41.00;22.23;;;;;;;0.16;100.00;100969.47;5019869;28;20503;-60
2022/12/11 09:49:42;;;;;;;44.47;23.43;;;;;;;0.17;100.00;100963.31;5015735;28;20037;-61
2022/12/11 09:52:30;;;;;;;39.43;21.17;;;;;;;0.14;100.00;100961.72;5015323;28;20061;-61
2022/12/11 09:55:01;;;;;;;43.43;25.17;;;;;;;0.13;100.00;100955.69;5007747;28;20420;-59
2022/12/11 09:57:54;;;;;;;37.80;20.63;;;;;;;0.18;99.91;100951.94;5017181;28;20041;-61
2022/12/11 10:00:35;;;;;;;36.92;20.27;;;;;;;0.19;100.00;100944.03;5012889;28;20029;-58
2022/12/11 10:03:20;;;;;;;39.37;20.27;;;;;;;0.18;99.88;100946.75;5010262;28;20064;-58
2022/12/11 10:06:01;;;;;;;48.57;25.70;;;;;;;0.23;100.00;100955.13;5015978;28;20033;-58
2022/12/11 10:08:49;;;;;;;43.83;22.80;;;;;;;0.23;100.00;100949.91;5017340;28;20273;-61
2022/12/11 10:11:33;;;;;;;36.47;19.37;;;;;;;0.23;100.00;100955.13;5009663;28;20034;-59
2022/12/11 10:14:36;;;;;;;37.10;19.30;;;;;;;0.28;99.99;100953.09;5017456;28;20175;-58
2022/12/11 10:17:27;;;;;;;37.60;19.10;;;;;;;0.30;100.00;100951.22;5018063;28;20029;-58
2022/12/11 10:19:56;;;;;;;33.90;18.17;;;;;;;0.26;99.82;100949.75;5008476;28;20038;-59
2022/12/11 10:22:31;;;;;;;34.47;17.97;;;;;;;0.26;99.63;100954.97;5017945;28;20136;-61
2022/12/11 10:25:04;;;;;;;33.30;18.37;;;;;;;0.22;99.72;100953.47;5020177;28;20030;-56
2022/12/11 10:27:32;;;;;;;33.50;18.05;;;;;;;0.23;99.82;100950.78;5020785;28;20068;-58
2022/12/11 10:30:15;;;;;;;35.87;18.07;;;;;;;0.26;99.99;100954.97;5007697;28;20038;-61
2022/12/11 10:32:52;;;;;;;35.20;19.20;;;;;;;0.27;99.63;100946.19;5019534;28;20044;-59
2022/12/11 10:35:32;;;;;;;34.93;18.90;;;;;;;0.26;99.20;100944.53;5005328;28;20136;-58
2022/12/11 10:38:18;;;;;;;33.27;18.07;;;;;;;0.25;100.00;100948.06;5017406;28;20068;-59
2022/12/11 10:40:48;;;;;;;33.70;18.60;;;;;;;0.22;99.47;100948.25;5020711;28;20049;-59
2022/12/11 10:43:14;;;;;;;36.70;20.53;;;;;;;0.23;99.78;100937.72;5016865;28;20042;-61
2022/12/11 10:45:49;;;;;;;39.30;21.73;;;;;;;0.23;99.67;100934.25;5014910;28;20440;-59
2022/12/11 10:48:14;;;;;;;44.07;24.30;;;;;;;0.26;100.00;100931.50;5016104;28;20095;-58
2022/12/11 10:50:43;;;;;;;35.10;19.00;;;;;;;0.26;99.54;100928.88;5020584;28;20489;-57
2022/12/11 10:53:19;;;;;;;34.73;19.63;;;;;;;0.26;99.38;100929.69;5018627;28;20052;-58
2022/12/11 10:55:47;;;;;;;39.37;21.10;;;;;;;0.25;99.64;100927.22;5011206;28;20044;-60
2022/12/11 10:58:18;;;;;;;39.17;20.57;;;;;;;0.23;99.43;100929.03;5020480;28;20530;-59
2022/12/11 11:00:44;;;;;;;35.17;19.07;;;;;;;0.22;99.38;100928.22;5014669;28;20033;-60
2022/12/11 11:03:26;;;;;;;36.83;19.87;;;;;;;0.24;99.48;100922.91;5017270;28;20049;-58
2022/12/11 11:06:02;;;;;;;35.15;19.50;;;;;;;0.22;99.02;100927.38;5027201;28;20029;-60
2022/12/11 11:08:38;;;;;;;35.77;18.83;;;;;;;0.26;99.21;100918.44;5022025;28;20064;-58
2022/12/11 11:11:03;;;;;;;35.37;20.03;;;;;;;0.29;99.15;100933.06;5022857;28;20029;-57
2022/12/11 11:13:30;;;;;;;35.23;19.83;;;;;;;0.28;99.32;100921.78;5022828;28;20022;-57
2022/12/11 11:16:05;;;;;;;38.57;20.03;;;;;;;0.31;98.99;100916.41;5025671;28;20026;-57
2022/12/11 11:18:31;;;;;;;37.93;20.33;;;;;;;0.32;98.35;100927.66;5022195;28;20037;-57
2022/12/11 11:20:57;;;;;;;38.73;20.60;;;;;;;0.32;98.70;100912.00;5026422;28;20660;-57
2022/12/11 11:23:24;;;;;;;41.03;21.83;;;;;;;0.32;98.65;100912.84;5026343;28;20026;-58